Time;durP1;ratioP1;P1;durP2;ratioP2;P2;SDS_P1;SDS_P2;PMS_P1;PMS_P2;Temp;Humidity;BMP_temperature;BMP_pressure;BME280_temperature;BME280_humidity;BME280_pressure;Samples;Min_cycle;Max_cycle;Signal;HPM_P1;HPM_P2
2023/01/27 00:01:06;;;;;;;11.95;6.05;;;7.50;99.90;;;;;;7401047;19;19982;-75
2023/01/27 00:03:33;;;;;;;13.73;6.05;;;7.40;99.90;;;;;;7404139;19;20267;-74
2023/01/27 00:05:59;;;;;;;12.02;6.55;;;7.40;99.90;;;;;;7379209;19;19947;-75
2023/01/27 00:08:27;;;;;;;15.82;6.80;;;7.40;99.90;;;;;;7402314;19;20265;-74
2023/01/27 00:13:45;;;;;;;13.13;5.88;;;7.40;99.90;;;;;;7403291;19;19922;-74
2023/01/27 00:16:10;;;;;;;11.88;5.90;;;7.40;99.90;;;;;;7389141;19;19914;-75
2023/01/27 00:18:36;;;;;;;14.15;6.68;;;7.40;99.90;;;;;;7372941;19;19922;-75
2023/01/27 00:26:32;;;;;;;14.55;6.82;;;7.40;99.90;;;;;;7401667;19;19925;-73
2023/01/27 00:28:57;;;;;;;13.45;6.45;;;7.30;99.90;;;;;;7403541;19;20338;-74
2023/01/27 00:34:08;;;;;;;10.35;5.25;;;7.40;99.90;;;;;;7414996;19;20656;-74
2023/01/27 00:36:39;;;;;;;14.73;6.80;;;7.30;99.90;;;;;;7417895;19;19922;-74
2023/01/27 00:39:10;;;;;;;11.68;6.13;;;7.20;99.90;;;;;;7416154;19;19921;-73
2023/01/27 00:41:35;;;;;;;13.70;5.78;;;7.20;99.90;;;;;;7415207;19;20243;-73
2023/01/27 00:44:03;;;;;;;12.18;6.25;;;7.10;99.90;;;;;;7417772;19;19916;-73
2023/01/27 00:46:29;;;;;;;11.85;5.47;;;7.00;99.90;;;;;;7413105;19;19925;-74
2023/01/27 00:48:55;;;;;;;10.15;5.22;;;6.90;99.90;;;;;;7416718;19;19948;-75
2023/01/27 00:51:21;;;;;;;13.23;6.07;;;6.80;99.90;;;;;;7409159;19;19910;-73
2023/01/27 00:53:47;;;;;;;12.57;5.50;;;6.70;99.90;;;;;;7371869;19;19954;-74
2023/01/27 00:56:13;;;;;;;12.02;5.80;;;6.70;99.90;;;;;;7411589;19;19923;-73
2023/01/27 00:58:39;;;;;;;12.07;5.88;;;6.60;99.90;;;;;;7417242;19;19989;-73
2023/01/27 01:01:13;;;;;;;16.38;6.30;;;6.60;99.90;;;;;;7415035;19;20373;-73
2023/01/27 01:03:39;;;;;;;11.63;5.80;;;6.60;99.90;;;;;;7415731;19;19934;-74
2023/01/27 01:06:26;;;;;;;13.15;6.20;;;6.70;99.90;;;;;;7415163;19;19915;-73
2023/01/27 01:08:53;;;;;;;11.35;5.10;;;6.80;99.90;;;;;;7372334;19;19923;-74
2023/01/27 01:11:20;;;;;;;10.43;4.30;;;6.90;99.90;;;;;;7413470;19;19915;-73
2023/01/27 01:13:47;;;;;;;9.15;4.07;;;7.00;99.90;;;;;;7416406;19;19983;-73
2023/01/27 01:16:16;;;;;;;9.90;4.45;;;7.10;99.90;;;;;;7414455;19;19981;-74
2023/01/27 01:18:42;;;;;;;10.73;5.38;;;7.10;99.90;;;;;;7417082;19;19935;-74
2023/01/27 01:21:09;;;;;;;10.52;5.05;;;7.20;99.90;;;;;;7414545;19;19906;-73
2023/01/27 01:23:40;;;;;;;10.73;5.10;;;7.30;99.90;;;;;;7417829;19;19946;-74
2023/01/27 01:26:07;;;;;;;11.10;5.10;;;7.20;99.90;;;;;;7412263;19;20512;-74
2023/01/27 01:28:32;;;;;;;11.73;5.53;;;7.20;99.90;;;;;;7414519;19;19930;-73
2023/01/27 01:31:12;;;;;;;9.23;4.80;;;7.10;99.90;;;;;;7414647;19;20343;-73
2023/01/27 01:33:38;;;;;;;10.98;5.32;;;7.00;99.90;;;;;;7414945;19;19938;-73
2023/01/27 01:36:10;;;;;;;12.38;5.05;;;6.90;99.90;;;;;;7414098;19;19915;-72
2023/01/27 01:38:36;;;;;;;9.55;4.95;;;6.90;99.90;;;;;;7415028;19;20343;-73
2023/01/27 01:41:02;;;;;;;11.15;5.28;;;6.80;99.90;;;;;;7415220;19;19921;-75
2023/01/27 01:43:28;;;;;;;11.77;5.45;;;6.70;99.90;;;;;;7410341;19;19926;-73
2023/01/27 01:45:59;;;;;;;12.15;5.90;;;6.70;99.90;;;;;;7404786;19;19918;-73
2023/01/27 01:48:42;;;;;;;11.43;5.57;;;6.60;99.90;;;;;;7383437;19;20326;-72
2023/01/27 01:51:24;;;;;;;12.45;5.53;;;6.60;99.90;;;;;;7402042;19;19927;-73
2023/01/27 01:53:53;;;;;;;12.68;5.50;;;6.60;99.90;;;;;;7405498;19;19925;-73
2023/01/27 01:56:24;;;;;;;11.90;5.82;;;6.50;99.90;;;;;;7404536;19;19914;-73
2023/01/27 01:58:51;;;;;;;12.10;5.50;;;6.50;99.90;;;;;;7406760;19;19973;-72
2023/01/27 02:01:18;;;;;;;12.90;6.00;;;6.40;99.90;;;;;;7403935;19;19902;-74
2023/01/27 02:03:48;;;;;;;17.02;6.50;;;6.40;99.90;;;;;;7402737;19;19911;-73
2023/01/27 02:06:14;;;;;;;14.90;5.97;;;6.40;99.90;;;;;;7404475;19;19917;-73
2023/01/27 02:08:45;;;;;;;13.98;6.35;;;6.40;99.90;;;;;;7405606;19;19933;-73
2023/01/27 02:11:11;;;;;;;14.23;6.47;;;6.40;99.90;;;;;;7402584;19;19915;-73
2023/01/27 02:13:38;;;;;;;13.45;5.65;;;6.40;99.90;;;;;;7403956;19;19918;-74
2023/01/27 02:16:06;;;;;;;13.35;6.28;;;6.30;99.90;;;;;;7404023;19;19914;-74
2023/01/27 02:18:32;;;;;;;16.15;6.50;;;6.40;99.90;;;;;;7403751;19;19922;-73
2023/01/27 02:20:58;;;;;;;13.77;6.43;;;6.40;99.90;;;;;;7407499;19;20639;-73
2023/01/27 02:23:48;;;;;;;14.43;6.85;;;6.40;99.90;;;;;;7402498;19;19926;-73
2023/01/27 02:26:43;;;;;;;14.88;6.60;;;6.40;99.90;;;;;;7364910;19;20521;-73
2023/01/27 02:29:14;;;;;;;16.70;7.40;;;6.50;99.90;;;;;;7401671;19;19915;-73
2023/01/27 02:31:40;;;;;;;14.02;6.35;;;6.60;99.90;;;;;;7405866;19;19918;-72
2023/01/27 02:34:14;;;;;;;14.98;6.55;;;6.70;99.90;;;;;;7401241;19;19919;-72
2023/01/27 02:36:43;;;;;;;;;;;6.70;99.90;;;;;;7407116;19;20670;-73
2023/01/27 02:39:13;;;;;;;16.98;6.93;;;6.70;99.90;;;;;;7403290;19;19922;-72
2023/01/27 02:41:48;;;;;;;15.50;7.30;;;6.70;99.90;;;;;;7405059;19;19942;-73
2023/01/27 02:44:14;;;;;;;16.00;6.88;;;6.80;99.90;;;;;;7401571;19;19914;-72
2023/01/27 02:46:40;;;;;;;14.18;6.55;;;6.80;99.90;;;;;;7402280;19;19978;-73
2023/01/27 02:49:06;;;;;;;15.35;6.90;;;6.90;99.90;;;;;;7401920;19;20195;-73
2023/01/27 02:51:31;;;;;;;14.43;7.03;;;7.00;99.90;;;;;;7380208;19;20224;-73
2023/01/27 02:53:57;;;;;;;18.58;7.80;;;7.00;99.90;;;;;;7402782;19;19930;-73
2023/01/27 02:56:23;;;;;;;14.40;6.30;;;7.00;99.90;;;;;;7396454;19;19921;-73
2023/01/27 02:58:49;;;;;;;16.00;8.20;;;7.00;99.90;;;;;;7405070;19;19993;-74
2023/01/27 03:01:15;;;;;;;16.83;7.63;;;7.00;99.90;;;;;;7350573;19;19918;-72
2023/01/27 03:03:45;;;;;;;17.35;7.57;;;7.00;99.90;;;;;;7405812;19;19921;-73
2023/01/27 03:06:27;;;;;;;16.95;7.93;;;6.90;99.90;;;;;;7370045;19;19934;-73
2023/01/27 03:08:52;;;;;;;16.75;7.65;;;6.90;99.90;;;;;;7405013;19;19919;-73
2023/01/27 03:12:18;;;;;;;15.63;7.32;;;6.80;99.90;;;;;;7401432;19;19946;-73
2023/01/27 03:14:06;;;;;;;18.17;7.75;;;6.80;99.90;;;;;;7402707;19;19937;-73
2023/01/27 03:19:16;;;;;;;16.52;7.38;;;6.70;99.90;;;;;;7403659;19;19942;-72
2023/01/27 03:21:44;;;;;;;19.45;8.43;;;6.70;99.90;;;;;;7367010;19;19910;-73
2023/01/27 03:24:10;;;;;;;15.25;7.53;;;6.70;99.90;;;;;;7401557;19;19914;-72
2023/01/27 03:26:37;;;;;;;15.80;7.38;;;6.80;99.90;;;;;;7404839;19;19923;-73
2023/01/27 03:31:47;;;;;;;16.55;7.85;;;6.70;99.90;;;;;;7402767;19;20016;-73
2023/01/27 03:34:13;;;;;;;18.20;8.70;;;6.70;99.90;;;;;;7399987;19;19919;-73
2023/01/27 03:47:36;;;;;;;18.48;8.80;;;6.50;99.90;;;;;;7404304;19;20333;-73
2023/01/27 03:50:02;;;;;;;17.15;8.50;;;6.50;99.90;;;;;;7399669;19;19910;-73
2023/01/27 03:52:27;;;;;;;16.38;8.70;;;6.50;99.90;;;;;;7402881;19;19926;-72
2023/01/27 03:54:53;;;;;;;20.02;9.63;;;6.50;99.90;;;;;;7401966;19;19919;-73
2023/01/27 03:57:20;;;;;;;19.63;9.55;;;6.50;99.90;;;;;;7399317;19;19933;-72
2023/01/27 03:59:46;;;;;;;20.73;9.65;;;6.50;99.90;;;;;;7403396;19;19922;-74
2023/01/27 04:07:41;;;;;;;18.88;9.77;;;6.60;99.90;;;;;;7399456;19;19978;-72
2023/01/27 04:10:07;;;;;;;16.75;7.40;;;6.60;99.90;;;;;;7398208;19;20533;-73
2023/01/27 04:12:33;;;;;;;18.77;9.20;;;6.60;99.90;;;;;;7396418;19;19922;-72
2023/01/27 04:14:59;;;;;;;18.83;8.82;;;6.60;99.90;;;;;;7380168;19;19936;-72
2023/01/27 04:17:25;;;;;;;18.90;8.98;;;6.70;99.90;;;;;;7399211;19;19914;-72
2023/01/27 04:19:50;;;;;;;20.40;9.80;;;6.70;99.90;;;;;;7401630;19;19968;-73
2023/01/27 04:22:16;;;;;;;20.48;10.05;;;6.70;99.90;;;;;;7401763;19;19919;-73
2023/01/27 04:24:42;;;;;;;19.73;7.93;;;6.70;99.90;;;;;;7372925;19;19918;-72
2023/01/27 04:27:11;;;;;;;18.80;8.98;;;6.70;99.90;;;;;;7400439;19;20026;-73
2023/01/27 04:29:40;;;;;;;19.08;10.35;;;6.80;99.90;;;;;;7404790;19;19907;-72
2023/01/27 04:32:08;;;;;;;20.58;9.73;;;6.90;99.90;;;;;;7396756;19;19946;-72
2023/01/27 04:34:36;;;;;;;22.08;9.68;;;7.00;99.90;;;;;;7399637;19;19919;-73
2023/01/27 04:37:02;;;;;;;18.30;8.80;;;7.10;99.90;;;;;;7398007;19;19919;-73
2023/01/27 04:39:28;;;;;;;19.55;9.80;;;7.20;99.90;;;;;;7400816;19;20301;-73
2023/01/27 04:41:57;;;;;;;19.50;8.98;;;7.20;99.90;;;;;;7399551;19;20394;-73
2023/01/27 04:44:23;;;;;;;20.25;9.40;;;7.20;99.90;;;;;;7398503;19;19934;-73
2023/01/27 04:46:49;;;;;;;19.70;9.40;;;7.30;99.90;;;;;;7369107;19;20374;-72
2023/01/27 04:49:16;;;;;;;18.42;8.60;;;7.30;99.90;;;;;;7397193;19;19934;-73
2023/01/27 04:51:41;;;;;;;20.17;9.82;;;7.30;99.90;;;;;;7399989;19;19911;-73
2023/01/27 04:54:07;;;;;;;20.55;9.18;;;7.30;99.90;;;;;;7399712;19;19938;-73
2023/01/27 04:56:36;;;;;;;17.92;8.95;;;7.40;99.90;;;;;;7400985;19;19910;-72
2023/01/27 04:59:09;;;;;;;17.08;8.32;;;7.30;99.90;;;;;;7400209;19;19931;-72
2023/01/27 05:01:34;;;;;;;17.23;8.25;;;7.20;99.90;;;;;;7396467;19;19982;-72
2023/01/27 05:04:00;;;;;;;17.42;8.45;;;7.20;99.90;;;;;;7401470;19;19928;-73
2023/01/27 05:06:27;;;;;;;16.85;8.30;;;7.20;99.90;;;;;;7395944;19;19974;-72
2023/01/27 05:08:53;;;;;;;16.70;8.48;;;7.10;99.90;;;;;;7401192;19;19907;-72
2023/01/27 05:11:19;;;;;;;14.32;7.10;;;7.20;99.90;;;;;;7398216;19;19999;-72
2023/01/27 05:13:45;;;;;;;18.27;8.38;;;7.20;99.90;;;;;;7403369;19;19914;-73
2023/01/27 05:16:20;;;;;;;17.25;8.55;;;7.10;99.90;;;;;;7366435;19;19915;-73
2023/01/27 05:18:48;;;;;;;17.23;8.07;;;7.10;99.90;;;;;;7400576;19;20293;-71
2023/01/27 05:21:16;;;;;;;18.02;8.75;;;7.10;99.90;;;;;;7406352;19;20441;-73
2023/01/27 05:23:42;;;;;;;16.70;8.52;;;7.10;99.90;;;;;;7407300;19;20311;-72
2023/01/27 05:26:13;;;;;;;19.15;8.35;;;7.10;99.90;;;;;;7404245;19;19935;-73
2023/01/27 05:28:42;;;;;;;16.83;7.82;;;7.10;99.90;;;;;;7405342;19;19925;-72
2023/01/27 05:31:18;;;;;;;19.92;8.80;;;7.00;99.90;;;;;;7374815;19;19942;-74
2023/01/27 05:33:44;;;;;;;16.40;8.48;;;7.00;99.90;;;;;;7405741;19;19935;-72
2023/01/27 05:36:13;;;;;;;18.13;9.25;;;7.00;99.90;;;;;;7407372;19;19978;-73
2023/01/27 05:38:39;;;;;;;17.75;8.60;;;7.00;99.90;;;;;;7405024;19;19918;-72
2023/01/27 05:41:06;;;;;;;21.80;10.00;;;7.00;99.90;;;;;;7405335;19;19918;-72
2023/01/27 05:43:35;;;;;;;17.27;8.75;;;7.00;99.90;;;;;;7405390;19;20342;-73
2023/01/27 05:46:28;;;;;;;14.77;6.63;;;6.90;99.90;;;;;;7403534;19;19938;-73
2023/01/27 05:48:55;;;;;;;16.48;8.00;;;6.80;99.90;;;;;;7403802;19;19915;-73
2023/01/27 05:51:23;;;;;;;14.50;7.47;;;6.70;99.70;;;;;;7404488;19;19915;-74
2023/01/27 05:53:49;;;;;;;13.75;6.32;;;6.70;99.80;;;;;;7406051;19;19958;-72
2023/01/27 05:56:17;;;;;;;11.40;5.05;;;6.70;99.50;;;;;;7403848;19;19918;-73
2023/01/27 05:58:44;;;;;;;13.07;5.28;;;6.60;99.30;;;;;;7407577;19;19929;-72
2023/01/27 06:01:19;;;;;;;12.02;6.13;;;6.70;99.10;;;;;;7401815;19;19911;-73
2023/01/27 06:03:46;;;;;;;13.70;6.20;;;6.60;98.80;;;;;;7405200;19;19931;-73
2023/01/27 06:06:14;;;;;;;17.42;7.05;;;6.60;99.00;;;;;;7402434;19;19925;-73
2023/01/27 06:08:40;;;;;;;11.85;5.78;;;6.50;98.90;;;;;;7404917;19;20264;-73
2023/01/27 06:11:06;;;;;;;13.13;6.30;;;6.60;99.00;;;;;;7403391;19;19918;-73
2023/01/27 06:13:34;;;;;;;9.88;4.50;;;6.60;98.90;;;;;;7403258;19;19926;-73
2023/01/27 06:16:02;;;;;;;11.35;5.38;;;6.60;98.70;;;;;;7405482;19;19922;-73
2023/01/27 06:18:28;;;;;;;12.95;6.13;;;6.60;98.70;;;;;;7403457;19;19953;-73
2023/01/27 06:20:59;;;;;;;10.43;4.85;;;6.60;98.70;;;;;;7407140;19;19926;-73
2023/01/27 06:23:26;;;;;;;13.40;6.20;;;6.60;98.70;;;;;;7405266;19;19927;-75
2023/01/27 06:25:53;;;;;;;13.98;6.43;;;6.60;98.70;;;;;;7403647;19;20570;-73
2023/01/27 06:28:19;;;;;;;13.07;6.75;;;6.60;98.90;;;;;;7372709;19;19978;-73
2023/01/27 06:30:45;;;;;;;12.68;5.97;;;6.60;98.90;;;;;;7381908;19;19915;-73
2023/01/27 06:33:11;;;;;;;11.88;6.07;;;6.60;98.80;;;;;;7400661;19;19911;-73
2023/01/27 06:35:38;;;;;;;14.70;5.75;;;6.60;98.70;;;;;;7382923;19;19949;-73
2023/01/27 06:38:09;;;;;;;11.50;5.28;;;6.50;98.50;;;;;;7381774;19;19923;-72
2023/01/27 06:40:35;;;;;;;11.30;4.95;;;6.50;98.30;;;;;;7406697;19;19914;-72
2023/01/27 06:43:01;;;;;;;11.18;5.60;;;6.50;98.20;;;;;;7407453;19;19929;-73
2023/01/27 06:45:28;;;;;;;14.30;5.78;;;6.50;98.10;;;;;;7384389;19;19903;-72
2023/01/27 06:47:59;;;;;;;11.25;4.95;;;6.60;98.10;;;;;;7406067;19;19929;-74
2023/01/27 06:50:28;;;;;;;9.90;4.70;;;6.60;98.00;;;;;;7404036;19;20266;-73
2023/01/27 06:53:05;;;;;;;11.40;5.35;;;6.60;98.10;;;;;;7408207;19;19922;-73
2023/01/27 06:55:31;;;;;;;10.27;5.07;;;6.60;98.10;;;;;;7402485;19;19918;-73
2023/01/27 06:57:57;;;;;;;11.93;4.35;;;6.50;98.10;;;;;;7403778;19;19986;-74
2023/01/27 07:00:23;;;;;;;11.60;5.43;;;6.50;98.10;;;;;;7369218;19;20315;-74
2023/01/27 07:02:49;;;;;;;10.45;5.47;;;6.50;98.20;;;;;;7406201;19;19929;-73
2023/01/27 07:05:15;;;;;;;11.50;5.10;;;6.40;98.10;;;;;;7382772;19;19914;-75
2023/01/27 07:07:41;;;;;;;10.25;4.97;;;6.40;98.30;;;;;;7402433;19;19918;-72
2023/01/27 07:10:09;;;;;;;12.73;4.88;;;6.40;98.30;;;;;;7396558;19;19995;-72
2023/01/27 07:12:36;;;;;;;10.50;4.78;;;6.30;98.30;;;;;;7404246;19;19918;-73
2023/01/27 07:15:07;;;;;;;9.68;4.95;;;6.30;98.30;;;;;;7401794;19;19911;-73
2023/01/27 07:17:33;;;;;;;10.73;5.40;;;6.30;98.40;;;;;;7403835;19;19928;-72
2023/01/27 07:19:59;;;;;;;12.32;6.20;;;6.30;98.20;;;;;;7405521;19;20383;-74
2023/01/27 07:22:25;;;;;;;12.45;5.53;;;6.20;98.20;;;;;;7400971;19;19927;-73
2023/01/27 07:24:51;;;;;;;10.05;4.53;;;6.20;98.20;;;;;;7405634;19;19915;-73
2023/01/27 07:27:18;;;;;;;9.43;4.32;;;6.20;98.20;;;;;;7398118;19;19922;-74
2023/01/27 07:29:44;;;;;;;10.82;4.72;;;6.10;98.00;;;;;;7402741;19;19910;-73
2023/01/27 07:32:09;;;;;;;10.13;4.90;;;6.00;98.10;;;;;;7401629;19;20326;-72
2023/01/27 07:34:35;;;;;;;10.48;5.03;;;5.90;98.10;;;;;;7394299;19;19945;-73
2023/01/27 07:37:03;;;;;;;12.60;5.82;;;5.90;98.10;;;;;;7394079;19;20006;-73
2023/01/27 07:39:29;;;;;;;9.23;3.90;;;5.80;98.10;;;;;;7399109;19;20473;-74
2023/01/27 07:41:56;;;;;;;13.07;5.20;;;5.80;97.90;;;;;;7400930;19;19938;-72
2023/01/27 07:44:21;;;;;;;;;;;5.70;97.80;;;;;;7406750;19;19915;-72
2023/01/27 07:46:47;;;;;;;12.15;4.60;;;5.70;97.90;;;;;;7404873;19;20348;-72
2023/01/27 07:49:13;;;;;;;9.40;3.97;;;5.70;98.00;;;;;;7401866;19;19942;-72
2023/01/27 07:51:39;;;;;;;11.32;4.35;;;5.70;97.80;;;;;;7404544;19;20517;-73
2023/01/27 07:54:05;;;;;;;9.23;4.30;;;5.60;97.90;;;;;;7398125;19;19915;-73
2023/01/27 07:56:31;;;;;;;10.23;4.28;;;5.60;97.90;;;;;;7401440;19;21567;-73
2023/01/27 07:58:57;;;;;;;9.00;4.35;;;5.60;97.90;;;;;;7391130;19;19910;-75
2023/01/27 08:01:23;;;;;;;11.00;4.55;;;5.70;98.10;;;;;;7399839;19;19934;-74
2023/01/27 08:03:49;;;;;;;10.93;4.30;;;5.80;98.10;;;;;;7398751;19;19925;-73
2023/01/27 08:06:15;;;;;;;8.95;4.65;;;5.80;97.90;;;;;;7394879;19;19922;-74
2023/01/27 08:08:41;;;;;;;9.80;4.50;;;5.90;97.80;;;;;;7399886;19;20350;-74
2023/01/27 08:11:08;;;;;;;9.73;4.68;;;5.90;97.60;;;;;;7390079;19;19939;-73
2023/01/27 08:13:35;;;;;;;8.98;4.18;;;5.90;97.40;;;;;;7393715;19;20367;-72
2023/01/27 08:16:04;;;;;;;9.90;4.93;;;6.00;97.40;;;;;;7399156;19;20323;-74
2023/01/27 08:18:32;;;;;;;14.15;5.53;;;6.00;97.70;;;;;;7403449;19;19926;-74
2023/01/27 08:21:03;;;;;;;10.27;4.55;;;6.20;97.60;;;;;;7405927;19;19942;-73
2023/01/27 08:23:29;;;;;;;10.48;4.78;;;6.30;97.30;;;;;;7403969;19;20271;-74
2023/01/27 08:25:57;;;;;;;9.73;4.13;;;6.20;97.20;;;;;;7404808;19;19922;-74
2023/01/27 08:28:24;;;;;;;11.93;5.13;;;6.10;97.10;;;;;;7405571;19;19926;-74
2023/01/27 08:30:51;;;;;;;12.07;4.47;;;6.20;97.60;;;;;;7404468;19;19930;-73
2023/01/27 08:33:22;;;;;;;10.05;4.88;;;6.30;97.40;;;;;;7403561;19;19926;-75
2023/01/27 08:35:49;;;;;;;9.35;4.18;;;6.50;97.20;;;;;;7406944;19;19926;-75
2023/01/27 08:38:17;;;;;;;10.93;4.35;;;6.50;97.20;;;;;;7401413;19;20256;-73
2023/01/27 08:40:46;;;;;;;11.70;4.80;;;6.60;97.00;;;;;;7399678;19;19986;-73
2023/01/27 08:43:15;;;;;;;9.70;4.80;;;7.70;96.00;;;;;;7379727;19;19934;-73
2023/01/27 08:45:41;;;;;;;10.13;5.22;;;8.00;95.20;;;;;;7403991;19;19970;-73
2023/01/27 08:48:07;;;;;;;15.15;5.20;;;9.70;93.60;;;;;;7401533;19;19914;-74
2023/01/27 08:50:33;;;;;;;8.50;4.38;;;9.50;92.90;;;;;;7405743;19;19978;-74
2023/01/27 08:53:00;;;;;;;12.15;5.18;;;8.60;93.20;;;;;;7405776;19;19922;-73
2023/01/27 08:55:31;;;;;;;8.57;4.10;;;8.00;93.80;;;;;;7408033;19;20322;-72
2023/01/27 08:57:57;;;;;;;9.27;4.57;;;7.60;94.50;;;;;;7411812;19;19910;-73
2023/01/27 09:00:23;;;;;;;12.48;5.55;;;7.60;94.70;;;;;;7411402;19;19934;-73
2023/01/27 09:02:50;;;;;;;13.10;5.63;;;7.50;94.60;;;;;;7408891;19;20327;-73
2023/01/27 09:05:16;;;;;;;14.68;6.22;;;7.60;94.60;;;;;;7387539;19;19919;-73
2023/01/27 09:07:44;;;;;;;8.50;4.15;;;7.60;94.60;;;;;;7409788;19;20339;-73
2023/01/27 09:10:11;;;;;;;9.05;4.82;;;7.80;94.30;;;;;;7407236;19;19939;-73
2023/01/27 09:12:37;;;;;;;12.20;4.57;;;8.20;93.80;;;;;;7389029;19;19933;-73
2023/01/27 09:15:03;;;;;;;8.50;3.78;;;7.80;93.60;;;;;;7405880;19;19911;-72
2023/01/27 09:17:28;;;;;;;9.93;4.78;;;7.60;93.90;;;;;;7409642;19;20520;-72
2023/01/27 09:19:54;;;;;;;10.23;4.88;;;7.40;93.90;;;;;;7409546;19;19906;-73
2023/01/27 09:22:20;;;;;;;10.55;5.05;;;7.30;94.10;;;;;;7385266;19;20316;-72
2023/01/27 09:24:45;;;;;;;14.50;4.60;;;7.50;94.10;;;;;;7405861;19;19915;-74
2023/01/27 09:27:11;;;;;;;9.88;4.60;;;7.60;94.10;;;;;;7406799;19;19922;-74
2023/01/27 09:29:38;;;;;;;8.85;3.67;;;7.30;94.10;;;;;;7407462;19;19943;-73
2023/01/27 09:32:04;;;;;;;11.45;5.28;;;7.30;94.30;;;;;;7409227;19;19926;-74
2023/01/27 09:34:30;;;;;;;9.63;4.45;;;7.50;94.00;;;;;;7408722;19;19926;-73
2023/01/27 09:37:05;;;;;;;9.25;4.28;;;8.10;93.50;;;;;;7407826;19;20253;-74
2023/01/27 09:39:44;;;;;;;8.75;4.68;;;8.70;93.70;;;;;;7406876;19;19953;-74
2023/01/27 09:42:27;;;;;;;11.48;4.82;;;9.40;92.90;;;;;;7405948;19;19973;-74
2023/01/27 09:45:13;;;;;;;10.05;4.95;;;9.80;92.00;;;;;;7408899;19;19914;-72
2023/01/27 09:48:00;;;;;;;10.48;5.22;;;10.00;91.90;;;;;;7405996;19;20093;-73
2023/01/27 09:50:35;;;;;;;10.70;5.03;;;10.60;91.30;;;;;;7406500;19;19914;-73
2023/01/27 09:53:12;;;;;;;13.15;5.57;;;10.80;91.30;;;;;;7374263;19;19918;-73
2023/01/27 09:55:53;;;;;;;11.18;4.50;;;11.40;90.80;;;;;;7407759;19;19910;-73
2023/01/27 09:59:06;;;;;;;11.90;4.97;;;11.90;90.50;;;;;;7403239;19;19930;-73
2023/01/27 10:02:07;;;;;;;10.13;4.78;;;12.20;90.10;;;;;;7405977;19;20248;-74
2023/01/27 10:04:56;;;;;;;8.95;4.22;;;11.40;90.10;;;;;;7371997;19;19923;-72
2023/01/27 10:07:42;;;;;;;13.57;5.53;;;11.50;90.40;;;;;;7403378;19;19954;-72
2023/01/27 10:10:26;;;;;;;12.73;5.10;;;11.30;90.40;;;;;;7405951;19;19914;-73
2023/01/27 10:13:16;;;;;;;9.82;5.50;;;10.80;90.30;;;;;;7406390;19;19922;-73
2023/01/27 10:16:26;;;;;;;9.50;5.22;;;10.60;90.30;;;;;;7408389;19;19957;-73
2023/01/27 10:18:52;;;;;;;10.23;4.78;;;10.30;90.60;;;;;;7407832;19;19936;-75
2023/01/27 10:21:39;;;;;;;14.13;4.97;;;10.60;90.50;;;;;;7407280;19;19930;-76
2023/01/27 10:24:33;;;;;;;11.68;5.55;;;10.80;90.40;;;;;;7406271;19;19919;-76
2023/01/27 10:27:15;;;;;;;13.00;5.28;;;10.30;90.50;;;;;;7409486;19;19918;-78
2023/01/27 10:29:49;;;;;;;8.90;4.47;;;10.00;91.00;;;;;;7405116;19;19914;-76
2023/01/27 10:32:25;;;;;;;10.38;4.90;;;10.10;90.90;;;;;;7408348;19;19914;-76
2023/01/27 10:34:58;;;;;;;10.35;4.63;;;10.20;90.70;;;;;;7408722;19;19925;-76
2023/01/27 10:37:50;;;;;;;10.77;5.50;;;10.60;90.70;;;;;;7407091;19;19914;-76
2023/01/27 10:40:30;;;;;;;10.80;5.53;;;11.70;90.00;;;;;;7407571;19;19910;-75
2023/01/27 10:43:29;;;;;;;9.95;5.10;;;12.50;88.60;;;;;;7412147;19;19915;-76
2023/01/27 10:46:30;;;;;;;13.00;5.10;;;13.00;88.00;;;;;;7407050;19;19934;-76
2023/01/27 10:49:23;;;;;;;9.25;5.32;;;13.80;86.90;;;;;;7405930;19;19910;-77
2023/01/27 10:52:07;;;;;;;9.85;5.40;;;14.20;86.30;;;;;;7406424;19;19922;-76
2023/01/27 10:54:59;;;;;;;10.65;5.70;;;14.60;85.30;;;;;;7401794;19;20314;-76
2023/01/27 10:57:40;;;;;;;10.07;5.78;;;14.60;85.70;;;;;;7405157;19;19915;-76
2023/01/27 11:00:25;;;;;;;9.50;5.38;;;14.60;84.20;;;;;;7403093;19;19942;-76
2023/01/27 11:03:23;;;;;;;12.70;5.80;;;14.10;84.20;;;;;;7407540;19;19946;-76
2023/01/27 11:05:58;;;;;;;10.75;5.30;;;12.80;86.90;;;;;;7405419;19;19948;-75
2023/01/27 11:08:28;;;;;;;10.55;5.50;;;12.10;89.70;;;;;;7403782;19;19934;-75
2023/01/27 11:13:45;;;;;;;12.18;5.97;;;10.90;91.10;;;;;;7407146;19;20367;-75
2023/01/27 11:16:22;;;;;;;12.38;6.10;;;10.70;91.40;;;;;;7405168;19;19947;-76
2023/01/27 11:18:59;;;;;;;13.00;5.28;;;10.80;91.50;;;;;;7399664;19;19978;-77
2023/01/27 11:21:29;;;;;;;12.25;5.78;;;10.80;91.60;;;;;;7404623;19;19956;-76
2023/01/27 11:23:55;;;;;;;12.23;6.20;;;10.60;92.00;;;;;;7402477;19;19926;-75
2023/01/27 11:26:42;;;;;;;19.33;5.78;;;10.50;91.70;;;;;;7402363;19;20095;-76
2023/01/27 11:29:23;;;;;;;9.23;5.30;;;10.70;90.90;;;;;;7369597;19;19923;-76
2023/01/27 11:31:56;;;;;;;14.98;5.57;;;10.90;90.70;;;;;;7405037;19;19906;-76
2023/01/27 11:34:56;;;;;;;10.88;4.95;;;11.10;91.10;;;;;;7403443;19;19930;-77
2023/01/27 11:37:26;;;;;;;11.82;5.75;;;11.00;90.80;;;;;;7404816;19;20969;-76
2023/01/27 11:39:53;;;;;;;13.90;6.22;;;11.60;91.00;;;;;;7405254;19;19942;-76
2023/01/27 11:42:31;;;;;;;11.95;5.55;;;12.10;90.20;;;;;;7403585;19;20027;-76
2023/01/27 11:44:58;;;;;;;10.45;5.70;;;12.10;90.10;;;;;;7406893;19;20000;-76
2023/01/27 11:47:35;;;;;;;13.15;6.38;;;11.50;90.60;;;;;;7399810;19;19918;-76
2023/01/27 11:50:03;;;;;;;9.45;5.38;;;11.80;90.50;;;;;;7405784;19;20369;-76
2023/01/27 11:52:30;;;;;;;10.95;5.55;;;12.30;90.40;;;;;;7401261;19;20341;-74
2023/01/27 11:55:17;;;;;;;14.23;6.10;;;13.10;90.20;;;;;;7404572;19;20450;-76
2023/01/27 11:57:48;;;;;;;12.55;6.80;;;13.80;89.90;;;;;;7406511;19;19929;-76
2023/01/27 12:00:32;;;;;;;11.23;6.78;;;15.10;86.70;;;;;;7406849;19;19918;-76
2023/01/27 12:03:41;;;;;;;12.63;6.82;;;14.90;85.10;;;;;;7404508;19;19918;-76
2023/01/27 12:06:14;;;;;;;13.20;6.72;;;15.10;85.40;;;;;;7402327;19;19970;-77
2023/01/27 12:08:45;;;;;;;12.90;7.53;;;14.70;85.80;;;;;;7403791;19;19930;-77
2023/01/27 12:11:19;;;;;;;11.90;7.00;;;15.10;86.50;;;;;;7351760;19;20335;-76
2023/01/27 12:14:04;;;;;;;15.23;7.82;;;15.40;85.40;;;;;;7404399;19;21856;-76
2023/01/27 12:16:46;;;;;;;12.77;7.20;;;15.40;85.90;;;;;;7403024;19;19907;-76
2023/01/27 12:19:26;;;;;;;13.80;8.13;;;16.30;84.00;;;;;;7407622;19;19910;-77
2023/01/27 12:21:56;;;;;;;18.33;9.13;;;16.80;80.30;;;;;;7408337;19;19914;-76
2023/01/27 12:24:47;;;;;;;15.55;8.80;;;15.30;85.20;;;;;;7400752;19;20394;-76
2023/01/27 12:27:25;;;;;;;15.40;9.27;;;16.60;82.50;;;;;;7399553;19;20018;-76
2023/01/27 12:30:01;;;;;;;15.77;9.27;;;17.20;80.70;;;;;;7400029;19;19918;-77
2023/01/27 12:32:48;;;;;;;16.13;9.30;;;17.10;80.20;;;;;;7403214;19;19974;-77
2023/01/27 12:35:29;;;;;;;15.35;9.05;;;16.00;83.40;;;;;;7403701;19;19915;-77
2023/01/27 12:38:14;;;;;;;15.85;8.63;;;16.50;83.50;;;;;;7404482;19;19929;-76
2023/01/27 12:40:43;;;;;;;16.75;8.35;;;14.40;86.30;;;;;;7403862;19;19943;-76
2023/01/27 12:43:18;;;;;;;14.40;7.57;;;13.70;88.40;;;;;;7402227;19;19938;-76
2023/01/27 12:46:10;;;;;;;17.02;9.10;;;13.00;90.40;;;;;;7403523;19;19915;-76
2023/01/27 12:48:51;;;;;;;13.95;7.47;;;12.90;91.10;;;;;;7404215;19;19974;-75
2023/01/27 12:51:40;;;;;;;16.75;9.68;;;14.70;89.90;;;;;;7402059;19;19986;-76
2023/01/27 12:54:15;;;;;;;14.82;8.73;;;15.00;89.20;;;;;;7400815;19;19925;-76
2023/01/27 12:56:41;;;;;;;14.15;8.50;;;16.50;86.80;;;;;;7386998;19;20300;-75
2023/01/27 12:59:14;;;;;;;15.80;8.60;;;17.60;84.90;;;;;;7390505;19;19915;-76
2023/01/27 13:01:42;;;;;;;13.75;9.15;;;18.40;83.70;;;;;;7393667;19;20007;-75
2023/01/27 13:04:19;;;;;;;16.48;8.85;;;17.90;82.90;;;;;;7401246;19;19974;-76
2023/01/27 13:06:50;;;;;;;16.45;8.57;;;17.80;82.90;;;;;;7389707;19;19970;-76
2023/01/27 13:09:29;;;;;;;14.32;8.25;;;17.80;83.00;;;;;;7397655;19;19930;-76
2023/01/27 13:11:59;;;;;;;18.77;9.68;;;17.30;83.10;;;;;;7402323;19;19925;-75
2023/01/27 13:14:28;;;;;;;16.02;10.65;;;16.60;83.90;;;;;;7396664;19;19923;-75
2023/01/27 13:16:57;;;;;;;18.20;10.40;;;16.60;83.40;;;;;;7399559;19;19915;-76
2023/01/27 13:19:43;;;;;;;15.90;9.45;;;17.00;83.90;;;;;;7401963;19;19930;-77
2023/01/27 13:22:17;;;;;;;18.63;10.52;;;17.40;82.50;;;;;;7404266;19;19922;-75
2023/01/27 13:24:48;;;;;;;16.02;9.55;;;15.80;85.00;;;;;;7402010;19;19926;-76
2023/01/27 13:27:17;;;;;;;15.82;10.15;;;16.40;83.70;;;;;;7400850;19;19915;-76
2023/01/27 13:29:55;;;;;;;17.33;9.65;;;14.70;86.40;;;;;;7401096;19;19919;-76
2023/01/27 13:32:26;;;;;;;14.35;9.48;;;13.60;89.70;;;;;;7401564;19;19956;-76
2023/01/27 13:35:01;;;;;;;16.40;10.10;;;13.30;90.70;;;;;;7406216;19;20276;-76
2023/01/27 13:37:42;;;;;;;14.20;9.77;;;12.70;90.60;;;;;;7379119;19;19926;-75
2023/01/27 13:40:29;;;;;;;14.77;8.25;;;12.80;91.70;;;;;;7402838;19;19913;-75
2023/01/27 13:43:24;;;;;;;13.77;8.63;;;12.10;93.10;;;;;;7407495;19;19929;-75